Time;durP1;ratioP1;P1;durP2;ratioP2;P2;SDS_P1;SDS_P2;PMS_P1;PMS_P2;Temp;Humidity;BMP_temperature;BMP_pressure;BME280_temperature;BME280_humidity;BME280_pressure;Samples;Min_cycle;Max_cycle;Signal;HPM_P1;HPM_P2
2022/05/01 00:01:35;;;;;;;22.75;13.50;;;5.40;99.90;;;;;;5008518;28;20104;-70
2022/05/01 00:04:01;;;;;;;22.25;13.35;;;5.80;99.90;;;;;;5006495;28;20046;-71
2022/05/01 00:06:26;;;;;;;23.73;14.02;;;5.30;99.90;;;;;;5006948;28;20049;-70
2022/05/01 00:08:52;;;;;;;24.63;13.18;;;5.40;99.90;;;;;;5008979;28;20138;-70
2022/05/01 00:11:18;;;;;;;20.65;12.65;;;5.40;99.90;;;;;;5024162;28;20049;-72
2022/05/01 00:13:45;;;;;;;22.05;13.40;;;5.40;99.90;;;;;;5008790;28;20100;-70
2022/05/01 00:16:13;;;;;;;25.17;13.30;;;5.50;99.90;;;;;;5006487;28;20077;-71
2022/05/01 00:18:40;;;;;;;18.75;11.88;;;5.50;99.90;;;;;;5004379;28;20058;-72
2022/05/01 00:21:06;;;;;;;21.15;13.57;;;5.40;99.90;;;;;;5024116;28;20079;-70
2022/05/01 00:23:32;;;;;;;18.25;12.30;;;5.40;99.90;;;;;;5008811;28;20049;-70
2022/05/01 00:25:59;;;;;;;22.13;12.93;;;5.70;99.90;;;;;;5008106;28;20104;-70
2022/05/01 00:28:25;;;;;;;25.17;14.52;;;5.30;99.90;;;;;;5007173;28;20045;-71
2022/05/01 00:30:50;;;;;;;24.63;14.68;;;5.30;99.90;;;;;;5021917;28;20046;-70
2022/05/01 00:38:44;;;;;;;23.95;13.13;;;5.40;99.90;;;;;;5008893;28;20521;-71
2022/05/01 00:41:11;;;;;;;15.50;10.32;;;5.50;99.90;;;;;;5007259;28;20077;-71
2022/05/01 00:43:59;;;;;;;19.10;12.13;;;5.40;99.90;;;;;;4989301;28;20060;-70
2022/05/01 00:46:25;;;;;;;21.65;13.35;;;5.30;99.90;;;;;;5007061;28;20125;-70
2022/05/01 00:48:52;;;;;;;23.75;13.38;;;5.20;99.90;;;;;;5005390;28;20085;-72
2022/05/01 00:51:20;;;;;;;22.80;14.15;;;5.50;99.90;;;;;;5022345;28;20074;-72
2022/05/01 00:53:49;;;;;;;21.63;14.10;;;5.30;99.90;;;;;;5009088;28;20053;-71
2022/05/01 00:56:16;;;;;;;24.23;14.65;;;5.30;99.90;;;;;;5003145;28;20057;-70
2022/05/01 00:58:43;;;;;;;22.88;13.80;;;5.20;99.90;;;;;;4971994;28;20501;-71
2022/05/01 01:01:10;;;;;;;24.33;14.88;;;5.20;99.90;;;;;;5008102;28;20498;-71
2022/05/01 01:03:36;;;;;;;25.67;15.60;;;5.20;99.90;;;;;;4987623;28;20053;-71
2022/05/01 01:06:01;;;;;;;23.23;13.40;;;5.30;99.90;;;;;;5006046;28;20053;-71
2022/05/01 01:08:28;;;;;;;23.42;13.38;;;5.20;99.90;;;;;;5005396;28;20089;-71
2022/05/01 01:10:53;;;;;;;23.77;13.80;;;5.10;99.90;;;;;;5011891;28;20064;-71
2022/05/01 01:13:26;;;;;;;23.90;13.85;;;5.00;99.90;;;;;;5002779;28;20057;-71
2022/05/01 01:15:54;;;;;;;26.63;14.18;;;5.10;99.90;;;;;;5004281;28;20038;-71
2022/05/01 01:18:20;;;;;;;26.77;14.20;;;5.00;99.90;;;;;;4991982;28;20582;-70
2022/05/01 01:20:47;;;;;;;23.30;13.95;;;5.00;99.90;;;;;;5005045;28;20056;-71
2022/05/01 01:23:13;;;;;;;25.33;14.52;;;5.10;99.90;;;;;;5006499;28;20497;-70
2022/05/01 01:25:39;;;;;;;24.75;14.50;;;5.40;99.90;;;;;;4997828;28;20041;-72
2022/05/01 01:28:06;;;;;;;18.98;12.20;;;5.00;99.90;;;;;;5003581;28;20054;-71
2022/05/01 01:33:27;;;;;;;23.45;12.95;;;5.10;99.90;;;;;;5004814;28;20050;-71
2022/05/01 01:35:55;;;;;;;28.23;13.77;;;4.80;99.90;;;;;;5022653;28;20133;-71
2022/05/01 01:38:21;;;;;;;22.20;13.52;;;4.70;99.90;;;;;;5006592;28;20545;-71
2022/05/01 01:40:49;;;;;;;17.30;10.00;;;4.70;99.90;;;;;;5021547;28;20048;-72
2022/05/01 01:43:23;;;;;;;15.60;10.07;;;4.60;99.90;;;;;;5003084;28;20050;-72
2022/05/01 01:45:49;;;;;;;24.05;12.63;;;4.50;99.90;;;;;;5019408;28;20049;-71
2022/05/01 01:48:17;;;;;;;19.75;11.73;;;4.50;99.90;;;;;;5007209;28;20045;-72
2022/05/01 01:50:44;;;;;;;18.75;11.77;;;4.40;99.90;;;;;;5022641;28;20525;-71
2022/05/01 01:53:11;;;;;;;21.08;12.45;;;4.50;99.90;;;;;;5000281;28;20105;-71
2022/05/01 01:55:38;;;;;;;25.55;14.52;;;4.40;99.90;;;;;;5004341;28;20069;-71
2022/05/01 01:58:05;;;;;;;19.33;12.15;;;4.40;99.90;;;;;;5005403;28;20045;-71
2022/05/01 02:00:32;;;;;;;21.45;13.05;;;4.30;99.90;;;;;;5006546;28;20521;-71
2022/05/01 02:03:04;;;;;;;23.42;13.65;;;4.20;99.90;;;;;;5021835;28;20037;-71
2022/05/01 02:05:30;;;;;;;26.58;14.52;;;4.50;99.90;;;;;;4996331;28;20089;-71
2022/05/01 02:07:56;;;;;;;21.80;12.95;;;4.20;99.90;;;;;;5004304;28;20163;-71
2022/05/01 02:10:22;;;;;;;17.55;10.25;;;4.20;99.90;;;;;;5001473;28;20046;-72
2022/05/01 02:12:48;;;;;;;14.82;8.20;;;4.50;99.90;;;;;;5006477;28;20422;-72
2022/05/01 02:15:14;;;;;;;18.00;10.02;;;4.60;99.90;;;;;;5020916;28;20486;-71
2022/05/01 02:17:41;;;;;;;16.55;9.00;;;4.00;99.90;;;;;;5005871;28;20075;-71
2022/05/01 02:20:08;;;;;;;15.77;8.00;;;3.90;99.90;;;;;;5021218;28;20048;-72
2022/05/01 02:22:39;;;;;;;18.58;10.75;;;3.90;99.90;;;;;;5006015;28;20587;-71
2022/05/01 02:25:07;;;;;;;23.07;13.70;;;3.90;99.90;;;;;;5008572;28;20049;-71
2022/05/01 02:27:34;;;;;;;25.75;13.90;;;3.90;99.90;;;;;;5003087;28;20812;-71
2022/05/01 02:30:00;;;;;;;26.70;14.73;;;3.90;99.90;;;;;;4988007;28;20046;-71
2022/05/01 02:32:25;;;;;;;26.60;14.65;;;4.00;99.90;;;;;;5022309;28;20397;-71
2022/05/01 02:34:51;;;;;;;25.33;14.48;;;4.50;99.90;;;;;;5022166;28;20112;-72
2022/05/01 02:37:17;;;;;;;20.58;12.43;;;4.00;99.90;;;;;;5004639;28;20057;-71
2022/05/01 02:39:42;;;;;;;21.73;13.02;;;4.30;99.90;;;;;;5009799;28;20082;-72
2022/05/01 02:42:08;;;;;;;23.17;13.20;;;3.80;99.90;;;;;;5001506;28;20128;-71
2022/05/01 02:44:34;;;;;;;21.58;12.55;;;3.80;99.90;;;;;;4991794;28;20046;-71
2022/05/01 02:47:00;;;;;;;25.17;13.88;;;3.70;99.90;;;;;;5011216;28;20413;-71
2022/05/01 02:49:26;;;;;;;23.80;13.95;;;3.70;99.90;;;;;;5009861;28;20092;-72
2022/05/01 02:51:53;;;;;;;23.30;13.30;;;3.70;99.90;;;;;;5011272;28;20168;-70
2022/05/01 02:54:20;;;;;;;26.23;14.55;;;3.60;99.90;;;;;;5009262;28;20104;-71
2022/05/01 02:56:47;;;;;;;21.20;13.68;;;3.60;99.90;;;;;;4987416;28;20128;-71
2022/05/01 02:59:14;;;;;;;20.92;12.40;;;3.60;99.90;;;;;;5006839;28;20085;-71
2022/05/01 03:01:40;;;;;;;28.25;14.63;;;3.50;99.90;;;;;;5009594;28;20050;-71
2022/05/01 03:04:05;;;;;;;32.75;16.90;;;3.50;99.90;;;;;;5010044;28;20133;-71
2022/05/01 03:06:33;;;;;;;28.75;15.10;;;3.50;99.90;;;;;;5001363;28;20132;-72
2022/05/01 03:08:59;;;;;;;23.55;13.55;;;3.50;99.90;;;;;;4989443;28;20037;-71
2022/05/01 03:11:25;;;;;;;22.35;13.68;;;3.80;99.90;;;;;;4988864;28;20137;-71
2022/05/01 03:13:51;;;;;;;23.27;13.40;;;3.40;99.90;;;;;;4990135;28;20182;-71
2022/05/01 03:16:17;;;;;;;25.92;14.38;;;3.60;99.90;;;;;;5005764;28;21453;-72
2022/05/01 03:24:11;;;;;;;27.75;15.63;;;3.30;99.90;;;;;;5010245;28;20060;-71
2022/05/01 03:26:37;;;;;;;26.30;14.90;;;3.90;99.90;;;;;;4996272;28;20042;-71
2022/05/01 03:29:02;;;;;;;25.50;14.70;;;3.20;99.90;;;;;;5012245;28;20038;-71
2022/05/01 03:31:28;;;;;;;204.80;15.82;;;4.00;99.90;;;;;;5013317;28;20061;-72
2022/05/01 03:33:57;;;;;;;20.77;12.38;;;3.20;99.90;;;;;;5011888;28;20049;-72
2022/05/01 03:36:22;;;;;;;39.08;14.23;;;3.90;99.90;;;;;;4980760;28;20120;-71
2022/05/01 03:38:48;;;;;;;39.15;13.73;;;3.10;99.90;;;;;;4996364;28;20069;-71
2022/05/01 03:41:16;;;;;;;32.72;11.05;;;3.90;99.90;;;;;;5013518;28;20052;-70
2022/05/01 03:43:43;;;;;;;12.50;7.95;;;3.00;99.90;;;;;;4994845;28;20443;-72
2022/05/01 03:46:10;;;;;;;24.25;14.15;;;3.00;99.90;;;;;;5009750;28;20052;-73
2022/05/01 03:48:35;;;;;;;30.65;17.73;;;2.90;99.90;;;;;;5012412;28;20050;-71
2022/05/01 03:51:02;;;;;;;31.73;17.40;;;3.20;99.90;;;;;;5012330;28;20047;-71
2022/05/01 03:53:29;;;;;;;28.05;16.08;;;2.90;99.90;;;;;;5012762;28;20108;-71
2022/05/01 03:55:55;;;;;;;23.77;14.43;;;2.90;99.90;;;;;;5011694;28;20046;-71
2022/05/01 03:58:21;;;;;;;18.70;11.70;;;3.40;99.90;;;;;;5012196;28;20124;-71
2022/05/01 04:00:48;;;;;;;27.10;15.80;;;3.50;99.90;;;;;;5010990;28;20466;-71
2022/05/01 04:03:17;;;;;;;31.52;16.83;;;2.80;99.90;;;;;;4995789;28;20053;-71
2022/05/01 04:05:43;;;;;;;32.30;17.02;;;2.80;99.90;;;;;;5012588;28;20137;-72
2022/05/01 04:08:10;;;;;;;33.17;18.02;;;3.80;99.90;;;;;;5012696;28;20133;-72
2022/05/01 04:10:41;;;;;;;25.88;14.88;;;2.80;99.90;;;;;;4996264;28;20474;-71
2022/05/01 04:13:08;;;;;;;22.95;13.85;;;2.80;99.90;;;;;;4995254;28;20085;-71
2022/05/01 04:15:34;;;;;;;15.93;10.02;;;2.70;99.90;;;;;;5012185;28;20053;-72
2022/05/01 04:18:03;;;;;;;19.35;11.60;;;2.70;99.90;;;;;;5011430;28;20450;-71
2022/05/01 04:20:29;;;;;;;22.77;13.30;;;2.70;99.90;;;;;;5028633;28;20065;-71
2022/05/01 04:22:56;;;;;;;21.45;13.27;;;2.70;99.90;;;;;;4996123;28;20053;-71
2022/05/01 04:25:24;;;;;;;22.92;13.38;;;2.70;99.90;;;;;;5010194;28;20052;-71
2022/05/01 04:27:51;;;;;;;21.73;13.05;;;3.60;99.90;;;;;;5012493;28;20414;-70
2022/05/01 04:30:19;;;;;;;22.67;12.75;;;3.20;99.90;;;;;;5011155;28;20478;-71
2022/05/01 04:32:49;;;;;;;20.30;12.02;;;3.30;99.90;;;;;;5011513;28;20409;-72
2022/05/01 04:35:28;;;;;;;17.13;10.68;;;2.70;99.90;;;;;;5012261;28;20553;-71
2022/05/01 04:38:00;;;;;;;17.25;10.68;;;2.70;99.90;;;;;;5011673;28;20041;-71
2022/05/01 04:40:27;;;;;;;20.50;13.07;;;3.00;99.90;;;;;;5011807;28;20046;-71
2022/05/01 04:43:00;;;;;;;21.05;12.82;;;2.70;99.90;;;;;;4995422;28;20046;-71
2022/05/01 04:45:25;;;;;;;24.02;13.82;;;3.30;99.90;;;;;;4995828;28;20175;-71
2022/05/01 04:47:51;;;;;;;23.02;13.90;;;3.00;99.90;;;;;;5012039;28;20492;-71
2022/05/01 04:50:17;;;;;;;22.15;13.60;;;2.80;99.90;;;;;;4995163;28;20057;-71
2022/05/01 04:52:43;;;;;;;21.65;13.60;;;3.70;99.90;;;;;;5010563;28;20053;-71
2022/05/01 04:55:09;;;;;;;19.90;13.65;;;2.90;99.90;;;;;;5012203;28;20050;-72
2022/05/01 04:57:38;;;;;;;23.75;14.90;;;3.00;99.90;;;;;;5011210;28;20400;-71
2022/05/01 05:00:05;;;;;;;17.50;12.65;;;3.10;99.90;;;;;;5009917;28;20050;-71
2022/05/01 05:02:41;;;;;;;17.48;12.63;;;3.10;99.90;;;;;;4995809;28;20157;-71
2022/05/01 05:05:11;;;;;;;16.05;11.98;;;3.20;99.90;;;;;;5011733;28;20054;-71
2022/05/01 05:07:37;;;;;;;15.45;12.02;;;3.90;99.90;;;;;;5011512;28;20052;-71
2022/05/01 05:10:05;;;;;;;20.80;14.57;;;3.30;99.90;;;;;;5011213;28;20243;-72
2022/05/01 05:12:32;;;;;;;19.77;13.60;;;3.40;99.90;;;;;;5011488;28;20053;-71
2022/05/01 05:15:00;;;;;;;21.83;14.32;;;3.90;99.90;;;;;;5010233;28;20062;-71
2022/05/01 05:17:27;;;;;;;22.85;14.43;;;3.60;99.90;;;;;;4999826;28;20595;-71
2022/05/01 05:19:54;;;;;;;21.58;14.82;;;3.70;99.90;;;;;;5010854;28;20508;-71
2022/05/01 05:22:20;;;;;;;24.63;15.65;;;3.90;99.90;;;;;;5011140;28;20058;-72
2022/05/01 05:24:46;;;;;;;25.00;15.85;;;3.90;99.90;;;;;;5011267;28;20053;-71
2022/05/01 05:27:13;;;;;;;28.67;18.27;;;4.60;99.90;;;;;;5011213;28;20045;-71
2022/05/01 05:29:39;;;;;;;23.30;15.73;;;4.50;99.90;;;;;;5009736;28;20121;-72
2022/05/01 05:32:06;;;;;;;26.25;17.52;;;4.40;99.90;;;;;;5011288;28;20485;-71
2022/05/01 05:34:31;;;;;;;32.05;20.52;;;4.50;99.90;;;;;;5010374;28;20060;-71
2022/05/01 05:36:57;;;;;;;32.85;20.67;;;4.70;99.90;;;;;;5011174;28;20482;-71
2022/05/01 05:39:23;;;;;;;30.25;19.05;;;5.00;99.90;;;;;;5010112;28;20458;-71
2022/05/01 05:41:49;;;;;;;32.15;19.02;;;5.20;99.90;;;;;;5011171;28;20124;-71
2022/05/01 05:44:15;;;;;;;31.48;19.67;;;5.40;99.90;;;;;;5009265;28;20053;-71
2022/05/01 05:46:40;;;;;;;32.53;19.55;;;5.70;99.90;;;;;;5009331;28;20482;-71
2022/05/01 05:49:06;;;;;;;28.95;18.10;;;5.90;99.90;;;;;;5010154;28;20054;-71
2022/05/01 05:51:32;;;;;;;27.52;18.00;;;6.10;99.90;;;;;;5010560;28;20101;-71
2022/05/01 05:53:58;;;;;;;29.65;19.35;;;6.20;99.90;;;;;;5011828;28;20121;-71
2022/05/01 05:56:24;;;;;;;35.15;19.50;;;6.40;99.90;;;;;;4974274;28;20470;-71
2022/05/01 05:58:50;;;;;;;29.77;18.30;;;6.60;99.90;;;;;;5007807;28;20077;-71
2022/05/01 06:01:16;;;;;;;29.15;18.23;;;6.90;99.90;;;;;;5010688;28;20406;-71
2022/05/01 06:03:42;;;;;;;30.17;18.58;;;7.20;99.90;;;;;;5012243;28;20478;-72
2022/05/01 06:06:08;;;;;;;27.77;16.88;;;7.10;99.90;;;;;;5007352;28;20489;-71
2022/05/01 06:08:40;;;;;;;25.00;16.50;;;7.30;99.90;;;;;;5010091;28;20137;-71
2022/05/01 06:11:06;;;;;;;25.70;16.73;;;7.50;99.90;;;;;;5008972;28;20545;-71
2022/05/01 06:13:32;;;;;;;22.08;15.23;;;7.60;99.90;;;;;;5020531;28;20140;-71
2022/05/01 06:15:58;;;;;;;24.30;15.88;;;7.70;99.90;;;;;;5009439;28;20049;-71
2022/05/01 06:18:24;;;;;;;23.98;15.13;;;7.80;99.90;;;;;;5009603;28;20061;-72
2022/05/01 06:20:50;;;;;;;21.25;14.73;;;8.00;99.90;;;;;;5010531;28;20146;-72
2022/05/01 06:23:16;;;;;;;21.92;14.93;;;8.00;99.90;;;;;;4976886;28;20592;-72
2022/05/01 06:25:43;;;;;;;21.60;14.85;;;8.10;99.90;;;;;;5010151;28;20449;-72
2022/05/01 06:28:12;;;;;;;19.40;13.45;;;8.30;99.90;;;;;;5010603;28;20132;-72
2022/05/01 06:30:43;;;;;;;16.48;12.15;;;8.40;99.90;;;;;;5009795;28;20060;-71
2022/05/01 06:33:12;;;;;;;25.20;15.05;;;8.60;99.90;;;;;;5010692;28;20046;-73
2022/05/01 06:35:38;;;;;;;22.17;15.20;;;8.60;99.90;;;;;;5010556;28;20054;-72
2022/05/01 06:38:04;;;;;;;19.27;13.95;;;8.80;99.90;;;;;;5009908;28;20409;-71
2022/05/01 06:40:30;;;;;;;19.95;14.05;;;9.00;99.90;;;;;;5009589;28;20054;-72
2022/05/01 06:42:56;;;;;;;19.25;13.30;;;9.20;99.90;;;;;;4993949;28;20046;-72
2022/05/01 06:45:22;;;;;;;20.00;13.55;;;9.20;99.90;;;;;;5011076;28;20042;-72
2022/05/01 06:47:47;;;;;;;18.02;12.68;;;9.50;99.90;;;;;;5010430;28;20045;-71
2022/05/01 06:50:14;;;;;;;18.40;13.00;;;9.40;99.90;;;;;;4992735;28;20202;-72
2022/05/01 06:52:39;;;;;;;15.82;11.90;;;9.70;99.90;;;;;;4994081;28;20056;-72
2022/05/01 06:55:05;;;;;;;17.15;11.98;;;9.60;99.90;;;;;;5010047;28;20038;-72
2022/05/01 06:57:31;;;;;;;16.50;12.18;;;9.70;99.90;;;;;;5010267;28;20050;-73
2022/05/01 06:59:57;;;;;;;15.55;11.02;;;9.80;99.90;;;;;;4992677;28;20092;-71
2022/05/01 07:02:23;;;;;;;15.65;11.18;;;9.90;99.90;;;;;;5014138;28;20053;-76
2022/05/01 07:04:49;;;;;;;15.88;11.70;;;10.00;99.90;;;;;;5014111;28;20383;-72
2022/05/01 07:07:14;;;;;;;16.73;12.60;;;10.00;99.90;;;;;;4997456;28;20041;-71
2022/05/01 07:09:40;;;;;;;15.73;12.02;;;10.00;99.90;;;;;;5012856;28;20049;-70
2022/05/01 07:12:09;;;;;;;17.60;11.98;;;10.20;99.90;;;;;;4996827;28;20057;-71
2022/05/01 07:14:35;;;;;;;14.88;11.43;;;10.20;99.90;;;;;;5003836;28;20489;-71
2022/05/01 07:17:00;;;;;;;20.48;12.68;;;10.30;99.90;;;;;;4992641;28;20054;-71
2022/05/01 07:19:26;;;;;;;14.63;10.82;;;10.30;99.90;;;;;;5014234;28;20529;-71
2022/05/01 07:21:52;;;;;;;14.85;10.90;;;10.30;99.90;;;;;;5008796;28;20390;-71
2022/05/01 07:24:18;;;;;;;14.32;11.25;;;10.30;99.90;;;;;;5009548;28;20048;-71
2022/05/01 07:26:43;;;;;;;10.93;8.30;;;10.20;99.90;;;;;;5008232;28;20056;-71
2022/05/01 07:29:09;;;;;;;12.68;8.77;;;10.80;99.90;;;;;;5008768;28;20041;-73
2022/05/01 07:31:35;;;;;;;12.23;8.68;;;10.40;99.90;;;;;;5008835;28;20127;-72
2022/05/01 07:34:00;;;;;;;15.48;9.82;;;10.50;99.90;;;;;;5009060;28;20042;-71
2022/05/01 07:36:26;;;;;;;12.52;9.63;;;10.70;99.90;;;;;;5008817;28;20045;-71
2022/05/01 07:38:52;;;;;;;12.93;9.73;;;10.80;99.90;;;;;;5008217;28;20045;-72
2022/05/01 07:41:18;;;;;;;13.48;9.45;;;11.00;99.90;;;;;;5008899;28;20087;-71
2022/05/01 07:43:45;;;;;;;14.35;9.13;;;11.20;99.90;;;;;;5008772;28;20041;-72
2022/05/01 07:46:11;;;;;;;12.95;9.35;;;12.10;99.90;;;;;;5008998;28;20073;-71
2022/05/01 07:48:37;;;;;;;12.13;9.55;;;11.40;99.90;;;;;;5001314;28;20453;-73
2022/05/01 07:51:03;;;;;;;15.93;9.50;;;11.80;99.90;;;;;;4992706;28;20133;-72
2022/05/01 07:53:29;;;;;;;14.30;9.40;;;12.10;99.90;;;;;;5008893;28;20493;-72
2022/05/01 07:55:56;;;;;;;13.93;8.32;;;12.40;99.90;;;;;;5019763;28;20048;-71
2022/05/01 07:58:22;;;;;;;12.82;9.10;;;12.60;99.90;;;;;;5020207;28;20045;-72
2022/05/01 08:00:48;;;;;;;11.85;8.82;;;12.80;99.90;;;;;;5009230;28;20045;-72
2022/05/01 08:05:59;;;;;;;10.55;7.63;;;13.10;99.90;;;;;;5013183;28;20088;-72
2022/05/01 08:08:26;;;;;;;9.02;6.97;;;12.90;99.90;;;;;;5024919;28;20054;-72
2022/05/01 08:10:52;;;;;;;10.52;7.43;;;12.80;99.90;;;;;;5011189;28;20605;-73
2022/05/01 08:13:17;;;;;;;11.73;8.05;;;12.70;99.90;;;;;;4995442;28;20058;-72
2022/05/01 08:15:43;;;;;;;10.32;7.82;;;12.30;99.90;;;;;;5017777;28;20049;-72
2022/05/01 08:21:09;;;;;;;10.52;7.60;;;12.10;99.90;;;;;;5011069;28;20108;-72
2022/05/01 08:23:37;;;;;;;9.57;7.53;;;12.30;99.90;;;;;;5016802;28;20046;-72
2022/05/01 08:26:07;;;;;;;9.35;7.13;;;12.20;99.90;;;;;;5017794;28;20038;-72
2022/05/01 08:28:34;;;;;;;10.63;7.25;;;12.40;99.90;;;;;;5011928;28;20061;-73
2022/05/01 08:31:00;;;;;;;10.80;7.97;;;12.30;99.90;;;;;;5011210;28;20133;-72
2022/05/01 08:33:27;;;;;;;10.45;6.93;;;12.20;99.90;;;;;;5013406;28;20053;-72
2022/05/01 08:35:54;;;;;;;12.35;7.50;;;12.40;99.90;;;;;;5001882;28;20057;-72
2022/05/01 08:38:22;;;;;;;9.32;6.53;;;12.60;99.90;;;;;;4997883;28;20129;-72
2022/05/01 08:40:49;;;;;;;10.02;6.63;;;12.70;99.90;;;;;;4988838;28;20084;-72
2022/05/01 08:43:17;;;;;;;9.20;6.53;;;13.10;99.90;;;;;;4986090;28;20063;-72
2022/05/01 08:45:52;;;;;;;9.05;6.90;;;13.30;99.90;;;;;;5030582;28;20041;-72
2022/05/01 08:48:44;;;;;;;9.93;7.72;;;13.50;99.90;;;;;;5027241;28;20063;-72
2022/05/01 08:51:11;;;;;;;11.02;8.27;;;13.40;99.90;;;;;;5013193;28;20072;-73
2022/05/01 08:53:37;;;;;;;12.65;7.65;;;13.60;99.90;;;;;;5031314;28;20064;-72
2022/05/01 08:56:07;;;;;;;9.90;7.55;;;13.70;99.90;;;;;;4997636;28;20049;-69
2022/05/01 08:58:34;;;;;;;12.88;7.93;;;13.70;99.90;;;;;;5030821;28;20076;-69
2022/05/01 09:01:00;;;;;;;12.32;7.78;;;13.60;99.90;;;;;;5025851;28;20045;-74
2022/05/01 09:03:26;;;;;;;9.15;7.25;;;13.50;99.90;;;;;;5015526;28;20044;-74
2022/05/01 09:05:52;;;;;;;8.82;6.32;;;13.60;99.90;;;;;;5031548;28;20049;-71
2022/05/01 09:08:18;;;;;;;8.45;6.60;;;13.50;99.90;;;;;;5031015;28;20551;-70
2022/05/01 09:10:45;;;;;;;8.00;5.68;;;13.50;99.90;;;;;;5021045;28;20041;-72
2022/05/01 09:13:11;;;;;;;9.05;6.13;;;13.80;99.90;;;;;;5030587;28;20129;-71
2022/05/01 09:15:41;;;;;;;7.35;5.80;;;14.10;99.90;;;;;;5031521;28;20045;-71
2022/05/01 09:18:14;;;;;;;7.22;5.30;;;14.20;99.90;;;;;;5006390;28;20069;-76
2022/05/01 09:21:08;;;;;;;7.97;5.32;;;14.60;99.90;;;;;;5019087;28;20140;-72
2022/05/01 09:23:42;;;;;;;9.60;5.72;;;14.70;99.90;;;;;;5030690;28;20045;-71
2022/05/01 09:26:10;;;;;;;6.18;5.07;;;15.10;99.90;;;;;;5015173;28;20049;-71
2022/05/01 09:29:02;;;;;;;7.85;5.32;;;15.40;99.90;;;;;;5026959;28;20038;-72
2022/05/01 09:31:45;;;;;;;7.65;4.88;;;15.30;88.60;;;;;;5026091;28;20123;-72
2022/05/01 09:34:25;;;;;;;8.23;5.53;;;15.20;94.40;;;;;;5031448;28;20073;-71
2022/05/01 09:36:52;;;;;;;6.72;5.18;;;14.80;99.90;;;;;;5030731;28;20096;-72
2022/05/01 09:39:23;;;;;;;7.22;5.70;;;14.60;99.90;;;;;;5006385;28;20057;-72
2022/05/01 09:41:50;;;;;;;7.55;5.20;;;14.60;99.90;;;;;;5051084;28;20036;-72
2022/05/01 09:44:17;;;;;;;6.47;4.63;;;14.70;99.90;;;;;;5050915;28;20045;-73
2022/05/01 09:46:47;;;;;;;7.15;4.95;;;14.20;99.90;;;;;;5042136;28;20061;-72
2022/05/01 09:49:16;;;;;;;6.67;4.73;;;14.30;94.00;;;;;;5030029;28;20076;-72
2022/05/01 09:51:55;;;;;;;7.07;5.13;;;14.20;99.90;;;;;;5030948;28;20085;-72
2022/05/01 09:54:27;;;;;;;6.50;5.40;;;14.40;99.90;;;;;;5030534;28;20132;-72
2022/05/01 09:56:58;;;;;;;8.40;5.78;;;14.50;97.70;;;;;;5029893;28;20409;-72
2022/05/01 09:59:25;;;;;;;6.35;5.07;;;15.00;99.10;;;;;;5025645;28;20100;-71
2022/05/01 10:02:03;;;;;;;7.80;5.13;;;14.80;92.60;;;;;;5041463;28;20080;-71
2022/05/01 10:04:31;;;;;;;7.55;5.13;;;14.70;96.40;;;;;;5030538;28;20457;-74
2022/05/01 10:06:57;;;;;;;7.95;5.60;;;14.60;99.60;;;;;;5030038;28;20156;-73
2022/05/01 10:09:28;;;;;;;8.40;5.82;;;14.60;99.90;;;;;;5030062;28;20129;-72
2022/05/01 10:11:56;;;;;;;6.78;5.80;;;14.30;94.50;;;;;;5029858;28;20137;-72
2022/05/01 10:14:23;;;;;;;7.28;5.32;;;14.50;99.90;;;;;;5027061;28;20080;-72
2022/05/01 10:16:50;;;;;;;9.07;5.80;;;14.60;99.90;;;;;;5030091;28;20041;-71
2022/05/01 10:19:19;;;;;;;6.80;5.65;;;14.30;99.90;;;;;;5029645;28;20080;-72
2022/05/01 10:21:49;;;;;;;7.00;5.07;;;14.80;99.90;;;;;;5030486;28;20045;-71
2022/05/01 10:24:16;;;;;;;7.95;5.38;;;15.20;93.10;;;;;;5031923;28;20115;-71
2022/05/01 10:26:53;;;;;;;5.82;5.20;;;15.60;89.00;;;;;;5020386;28;20176;-76
2022/05/01 10:32:40;;;;;;;7.80;5.07;;;15.60;75.30;;;;;;5021562;28;20148;-75
2022/05/01 10:35:23;;;;;;;7.28;5.07;;;15.90;90.00;;;;;;5020543;28;20478;-75
2022/05/01 10:38:09;;;;;;;7.70;5.45;;;15.80;76.80;;;;;;5021165;28;20080;-72
2022/05/01 10:40:55;;;;;;;9.88;5.68;;;16.10;78.60;;;;;;5025151;28;20445;-71
2022/05/01 10:43:27;;;;;;;7.43;5.35;;;15.90;70.60;;;;;;5042233;28;20497;-71
2022/05/01 10:45:55;;;;;;;6.50;4.93;;;16.50;77.10;;;;;;5011946;28;20111;-71
2022/05/01 10:48:31;;;;;;;7.35;5.03;;;16.60;74.40;;;;;;5033963;28;20053;-71
2022/05/01 10:51:31;;;;;;;7.00;5.60;;;16.90;75.40;;;;;;5033292;28;20057;-73
2022/05/01 10:54:15;;;;;;;8.65;5.22;;;17.00;75.10;;;;;;5046371;28;20094;-72
2022/05/01 10:56:42;;;;;;;6.70;4.72;;;17.50;71.80;;;;;;5034183;28;20134;-71
2022/05/01 10:59:30;;;;;;;8.23;5.10;;;17.50;72.00;;;;;;5033616;28;20088;-72
2022/05/01 11:02:00;;;;;;;8.50;5.60;;;17.20;67.10;;;;;;5033967;28;20129;-72
2022/05/01 11:04:30;;;;;;;7.90;5.63;;;17.20;67.80;;;;;;5032598;28;20056;-72
2022/05/01 11:06:56;;;;;;;6.38;5.15;;;17.10;68.20;;;;;;5027105;28;20879;-71
2022/05/01 11:09:23;;;;;;;5.57;4.70;;;17.20;68.80;;;;;;5010342;28;20088;-71
2022/05/01 11:12:00;;;;;;;6.68;4.80;;;17.30;66.20;;;;;;5025722;28;20041;-71
2022/05/01 11:14:52;;;;;;;5.68;4.70;;;16.80;61.00;;;;;;5040161;28;20544;-72
2022/05/01 11:17:36;;;;;;;6.55;4.88;;;16.80;63.50;;;;;;5000268;28;20053;-72
2022/05/01 11:20:05;;;;;;;7.97;5.50;;;17.00;61.80;;;;;;5028739;28;20061;-72
2022/05/01 11:22:31;;;;;;;7.85;5.05;;;16.70;63.60;;;;;;5033531;28;20100;-74
2022/05/01 11:24:57;;;;;;;5.47;4.95;;;16.70;65.90;;;;;;5030820;28;20046;-72
2022/05/01 11:27:23;;;;;;;9.93;5.30;;;16.50;66.00;;;;;;5023438;28;20041;-72
2022/05/01 11:30:07;;;;;;;6.78;5.50;;;16.60;65.00;;;;;;5042012;28;20104;-73
2022/05/01 11:33:09;;;;;;;7.40;5.55;;;16.40;63.70;;;;;;5035536;28;20050;-72
2022/05/01 11:35:56;;;;;;;7.47;5.13;;;16.30;62.20;;;;;;4992707;28;20184;-70
2022/05/01 11:38:35;;;;;;;7.43;5.25;;;16.70;61.20;;;;;;5030509;28;20129;-70
2022/05/01 11:41:02;;;;;;;9.68;5.43;;;16.30;63.80;;;;;;5050013;28;20470;-70
2022/05/01 11:43:29;;;;;;;7.53;4.88;;;16.60;65.30;;;;;;5032352;28;20045;-72
2022/05/01 11:45:56;;;;;;;6.57;4.72;;;16.50;63.30;;;;;;5013299;28;20168;-70
2022/05/01 11:48:22;;;;;;;6.00;4.93;;;16.60;63.90;;;;;;5032880;28;20053;-71
2022/05/01 11:50:50;;;;;;;7.05;4.93;;;16.80;63.20;;;;;;5022818;28;20449;-70
2022/05/01 11:53:19;;;;;;;6.93;4.53;;;16.70;63.30;;;;;;5004700;28;20128;-70
2022/05/01 12:04:31;;;;;;;6.65;4.70;;;16.00;62.30;;;;;;5021588;28;20046;-69
2022/05/01 12:07:04;;;;;;;5.30;3.97;;;16.10;60.80;;;;;;5025167;28;20457;-68
2022/05/01 12:09:34;;;;;;;6.72;4.30;;;15.90;59.00;;;;;;5027116;28;20103;-71
2022/05/01 12:12:01;;;;;;;6.50;4.40;;;15.90;63.30;;;;;;5033317;28;20124;-72
2022/05/01 12:14:27;;;;;;;6.63;4.45;;;15.50;63.30;;;;;;5013740;28;20053;-70
2022/05/01 12:16:53;;;;;;;6.95;4.55;;;15.40;62.30;;;;;;5039781;28;20167;-69
2022/05/01 12:19:19;;;;;;;5.13;4.38;;;15.40;62.40;;;;;;5023322;28;20148;-68
2022/05/01 12:21:44;;;;;;;7.00;5.03;;;15.20;63.50;;;;;;5028394;28;20049;-68
2022/05/01 12:24:12;;;;;;;6.65;4.13;;;15.20;62.60;;;;;;5030762;28;20049;-69
2022/05/01 12:26:52;;;;;;;7.80;4.70;;;15.20;61.80;;;;;;5013948;28;20037;-68
2022/05/01 12:29:18;;;;;;;8.85;4.40;;;15.40;62.00;;;;;;5015595;28;20456;-68
2022/05/01 12:32:08;;;;;;;5.28;4.38;;;15.40;61.30;;;;;;5029374;28;20053;-68
2022/05/01 12:34:40;;;;;;;4.72;3.78;;;15.40;60.00;;;;;;5019011;28;20095;-69
2022/05/01 12:37:15;;;;;;;6.13;4.82;;;15.20;61.40;;;;;;5032376;28;20536;-68
2022/05/01 12:39:43;;;;;;;7.07;3.78;;;15.50;60.80;;;;;;5026556;28;20493;-68
2022/05/01 12:45:04;;;;;;;7.65;5.78;;;15.80;61.00;;;;;;5029846;28;20045;-67
2022/05/01 12:47:31;;;;;;;8.27;5.82;;;16.00;62.30;;;;;;5019836;28;20145;-68
2022/05/01 12:49:57;;;;;;;8.40;6.75;;;16.10;63.20;;;;;;5010039;28;20037;-68
2022/05/01 12:52:37;;;;;;;7.82;6.35;;;15.90;64.30;;;;;;5021476;28;20496;-68
2022/05/01 12:55:17;;;;;;;7.65;5.90;;;15.70;65.80;;;;;;5032255;28;20049;-68
2022/05/01 12:57:50;;;;;;;8.10;5.70;;;15.80;67.20;;;;;;4994970;28;20414;-68
2022/05/01 13:00:45;;;;;;;6.80;5.40;;;15.70;67.90;;;;;;5044309;28;20572;-68
2022/05/01 13:03:13;;;;;;;8.20;5.35;;;15.50;73.30;;;;;;5014395;28;20126;-68
2022/05/01 13:05:40;;;;;;;7.70;5.50;;;15.50;75.50;;;;;;5031766;28;20049;-70
2022/05/01 13:08:19;;;;;;;9.57;6.15;;;15.00;79.50;;;;;;5030695;28;20041;-68
2022/05/01 13:11:10;;;;;;;7.22;5.72;;;15.00;90.30;;;;;;5017882;28;20655;-69
2022/05/01 13:13:54;;;;;;;7.35;5.40;;;15.00;94.50;;;;;;5024112;28;20049;-68
2022/05/01 13:16:30;;;;;;;8.43;5.22;;;14.70;96.70;;;;;;5022120;28;20119;-69
2022/05/01 13:19:02;;;;;;;7.53;5.32;;;14.70;98.70;;;;;;5032221;28;20050;-70
2022/05/01 13:21:30;;;;;;;7.20;5.28;;;15.00;99.70;;;;;;5019206;28;20049;-68
2022/05/01 13:24:20;;;;;;;12.07;5.72;;;15.00;93.90;;;;;;5023650;28;20156;-68